Reading, Minnesota
Current Conditions -  °F | °C
As of 5:55 PM on Monday 22 Dec 2014 (Local Time) from KOTG Reporting Station
Overcast Overcast  
Wind Chill: 27°   Ceiling: 400
Heat Index: 36°   Visibility: 5mi
Dew Point: -13°   Wind: 13mph
Humidity: 12%   Direction: 120°ESE
Pressure: 29.47"   Gusts: NA
Location:  43.7°N, 95.71°W
Report Text: KOTG 222355Z AUTO 12011KT 5SM OVC004 02/M25 A2947 RMK AO1 10040 20020 52010
Loading
Personal Weather Stations






























Interactive Weather Map New forecast layout! Learn more

10-Day Weather Forecast

Advertisements
Track Severe Weather on mobile